Time;durP1;ratioP1;P1;durP2;ratioP2;P2;SDS_P1;SDS_P2;PMS_P1;PMS_P2;Temp;Humidity;BMP_temperature;BMP_pressure;BME280_temperature;BME280_humidity;BME280_pressure;Samples;Min_cycle;Max_cycle;Signal;HPM_P1;HPM_P2
2022/09/05 00:00:43;;;;;;;5.23;3.97;;;13.50;99.90;14.70;97589.00;;;;5038918;28;20201;-85
2022/09/05 00:03:41;;;;;;;4.23;3.83;;;13.50;99.90;14.60;97584.00;;;;5033831;28;20693;-85
2022/09/05 00:06:36;;;;;;;3.60;3.30;;;13.50;99.90;14.40;97580.00;;;;5031681;28;20686;-87
2022/09/05 00:09:51;;;;;;;4.20;3.83;;;13.40;99.90;14.30;97577.00;;;;5034610;28;20202;-86
2022/09/05 00:12:41;;;;;;;7.23;4.17;;;13.40;99.90;14.10;97574.00;;;;5039548;28;20225;-87
2022/09/05 00:15:42;;;;;;;5.77;4.33;;;13.20;99.90;13.90;97575.00;;;;5030402;28;20615;-87
2022/09/05 00:18:56;;;;;;;5.37;4.97;;;13.20;99.90;14.00;97579.00;;;;5040544;28;20208;-86
2022/09/05 00:22:04;;;;;;;4.43;4.03;;;13.10;99.90;14.00;97584.00;;;;5066983;23;20261;-67
2022/09/05 00:25:11;;;;;;;5.00;4.20;;;13.10;99.90;14.10;97585.00;;;;5054267;28;20200;-68
2022/09/05 00:28:29;;;;;;;4.13;3.73;;;13.10;99.90;13.90;97586.00;;;;5050522;28;20205;-67
2022/09/05 00:31:38;;;;;;;4.87;4.07;;;13.10;99.90;13.80;97581.00;;;;5048246;28;20219;-68
2022/09/05 00:34:58;;;;;;;5.03;3.73;;;13.00;99.90;14.00;97584.00;;;;5052199;28;20604;-69
2022/09/05 00:37:50;;;;;;;4.53;4.17;;;13.00;99.90;13.90;97571.00;;;;5056453;28;20211;-69
2022/09/05 00:40:43;;;;;;;4.20;3.90;;;13.00;99.90;13.80;97572.00;;;;5048032;28;20208;-68
2022/09/05 00:43:35;;;;;;;4.40;4.00;;;12.90;99.90;13.80;97580.00;;;;5051387;28;20212;-69
2022/09/05 00:46:28;;;;;;;7.10;4.23;;;12.90;99.90;13.90;97568.00;;;;5051276;28;20239;-68
2022/09/05 00:49:24;;;;;;;6.40;4.07;;;12.90;99.90;14.00;97575.00;;;;5056596;28;20196;-68
2022/09/05 00:52:20;;;;;;;4.00;3.63;;;12.90;99.90;14.00;97569.00;;;;5052474;28;20227;-67
2022/09/05 00:55:23;;;;;;;3.43;3.13;;;12.90;99.90;13.90;97562.00;;;;5047061;28;20208;-68
2022/09/05 00:58:31;;;;;;;3.60;3.30;;;12.90;99.90;13.90;97566.00;;;;5053110;28;20206;-69
2022/09/05 01:01:30;;;;;;;3.63;3.33;;;12.90;99.90;13.60;97574.00;;;;5061915;28;20208;-68
2022/09/05 01:04:38;;;;;;;4.17;3.60;;;12.80;99.90;13.40;97564.00;;;;5057785;28;20192;-68
2022/09/05 01:07:44;;;;;;;4.07;3.50;;;12.70;99.90;13.60;97583.00;;;;5060509;28;20205;-69
2022/09/05 01:10:43;;;;;;;4.43;4.03;;;12.70;99.90;13.90;97566.00;;;;5065004;28;20196;-69
2022/09/05 01:13:44;;;;;;;4.20;3.90;;;12.70;99.90;13.90;97565.00;;;;5057552;28;20263;-69
2022/09/05 01:16:54;;;;;;;4.90;3.43;;;12.70;99.90;13.70;97577.00;;;;5057457;28;20211;-68
2022/09/05 01:20:06;;;;;;;5.97;3.57;;;12.80;99.90;13.60;97574.00;;;;5053777;28;20200;-70
2022/09/05 01:23:28;;;;;;;4.60;3.60;;;12.70;99.90;13.60;97577.00;;;;5054859;28;20239;-68
2022/09/05 01:27:26;;;;;;;4.07;3.67;;;12.70;99.90;13.60;97593.00;;;;5067926;28;20615;-70
2022/09/05 01:30:21;;;;;;;4.00;3.60;;;12.60;99.90;13.50;97589.00;;;;5050673;28;20200;-69
2022/09/05 01:33:25;;;;;;;7.47;3.57;;;12.60;99.90;13.50;97585.00;;;;5063209;28;20220;-69
2022/09/05 01:36:49;;;;;;;6.63;3.87;;;12.60;99.90;13.80;97580.00;;;;5066942;28;20191;-68
2022/09/05 01:39:53;;;;;;;2.97;2.67;;;12.60;99.90;13.80;97581.00;;;;5052487;28;20203;-68
2022/09/05 01:42:57;;;;;;;4.47;4.07;;;12.60;99.90;13.80;97584.00;;;;5067499;28;20207;-68
2022/09/05 01:45:50;;;;;;;7.17;3.20;;;12.70;99.90;13.80;97595.00;;;;5065322;28;20197;-68
2022/09/05 01:48:51;;;;;;;5.80;3.43;;;12.60;99.90;13.60;97589.00;;;;5063273;28;20196;-69
2022/09/05 01:51:53;;;;;;;5.60;3.30;;;12.60;99.90;13.50;97588.00;;;;5051475;28;20216;-68
2022/09/05 01:55:18;;;;;;;3.27;2.97;;;12.60;99.90;13.40;97581.00;;;;5062092;28;20604;-68
2022/09/05 01:58:16;;;;;;;3.47;3.20;;;12.50;99.90;13.10;97582.00;;;;5051247;28;20201;-67
2022/09/05 02:01:14;;;;;;;3.07;2.77;;;12.40;99.90;12.80;97583.00;;;;5051925;28;20212;-67
2022/09/05 02:05:04;;;;;;;4.07;3.77;;;12.30;99.90;12.70;97569.00;;;;5060992;28;20614;-69
2022/09/05 02:08:25;;;;;;;3.60;3.30;;;12.10;99.90;12.80;97577.00;;;;5052455;28;20267;-68
2022/09/05 02:11:15;;;;;;;4.50;4.10;;;12.10;99.90;13.10;97580.00;;;;5045004;28;20565;-70
2022/09/05 02:14:20;;;;;;;4.37;3.97;;;12.10;99.90;13.20;97580.00;;;;5066133;28;20196;-68
2022/09/05 02:17:20;;;;;;;4.00;3.43;;;12.10;99.90;13.00;97573.00;;;;5052701;28;20193;-68
2022/09/05 02:20:24;;;;;;;3.37;2.93;;;12.20;99.90;13.00;97584.00;;;;5058195;28;20204;-71
2022/09/05 02:23:32;;;;;;;4.23;3.83;;;12.20;99.90;13.20;97575.00;;;;5067165;28;20235;-67
2022/09/05 02:26:27;;;;;;;3.77;3.33;;;12.20;99.90;12.90;97575.00;;;;5068216;28;20192;-69
2022/09/05 02:29:25;;;;;;;5.10;3.93;;;12.10;99.90;13.10;97569.00;;;;5061123;28;20211;-68
2022/09/05 02:32:22;;;;;;;4.00;3.63;;;12.10;99.90;13.20;97574.00;;;;5065962;28;20220;-68
2022/09/05 02:35:22;;;;;;;6.83;3.87;;;12.20;99.90;13.20;97572.00;;;;5052613;28;20839;-68
2022/09/05 02:38:19;;;;;;;4.00;3.70;;;12.20;99.90;13.00;97572.00;;;;5052007;28;20201;-68
2022/09/05 02:41:30;;;;;;;4.90;4.40;;;12.20;99.90;13.10;97565.00;;;;5051751;28;20204;-68
2022/09/05 02:44:29;;;;;;;4.30;3.30;;;12.20;99.90;13.00;97561.00;;;;5061456;28;20200;-70
2022/09/05 02:47:23;;;;;;;5.00;3.67;;;12.20;99.90;13.00;97562.00;;;;5068064;28;20192;-67
2022/09/05 02:50:33;;;;;;;4.00;3.33;;;12.30;99.90;13.30;97555.00;;;;5064677;28;20203;-69
2022/09/05 02:53:23;;;;;;;3.93;3.47;;;12.10;99.90;12.90;97549.00;;;;5065504;28;20215;-67
2022/09/05 02:56:40;;;;;;;5.23;3.50;;;12.10;99.90;12.70;97557.00;;;;5051899;28;20188;-68
2022/09/05 02:59:50;;;;;;;4.10;3.67;;;12.10;99.90;12.80;97554.00;;;;5061298;28;20197;-68
2022/09/05 03:03:14;;;;;;;4.20;3.03;;;12.00;99.90;13.20;97553.00;;;;5053615;28;20223;-68
2022/09/05 03:06:16;;;;;;;3.60;3.30;;;12.00;99.90;13.10;97550.00;;;;5052538;28;20204;-69
2022/09/05 03:09:34;;;;;;;24.23;16.47;;;12.10;99.90;12.80;97553.00;;;;5062161;28;21340;-68
2022/09/05 03:13:16;;;;;;;14.50;10.10;;;12.10;99.90;13.30;97557.00;;;;5063410;22;20231;-84
2022/09/05 03:16:58;;;;;;;13.83;11.00;;;12.10;99.90;13.40;97555.00;;;;5018912;28;20193;-83
2022/09/05 03:20:33;;;;;;;17.97;12.97;;;12.20;99.90;13.10;97554.00;;;;5010892;28;20785;-83
2022/09/05 03:24:05;;;;;;;11.83;8.60;;;12.20;99.90;13.00;97556.00;;;;5026626;28;20194;-84
2022/09/05 03:27:52;;;;;;;15.73;8.83;;;12.10;99.90;13.10;97553.00;;;;5014819;28;20198;-84
2022/09/05 03:31:13;;;;;;;12.43;8.43;;;12.00;99.90;13.10;97561.00;;;;5014773;28;20198;-83
2022/09/05 03:34:43;;;;;;;17.93;11.27;;;12.10;99.90;12.80;97546.00;;;;5031050;28;20649;-84
2022/09/05 03:38:05;;;;;;;22.13;13.27;;;12.00;99.90;12.80;97547.00;;;;5026900;28;20666;-84
2022/09/05 03:41:11;;;;;;;17.60;12.53;;;12.00;99.90;12.60;97540.00;;;;5015999;28;20196;-83
2022/09/05 03:44:28;;;;;;;15.37;8.93;;;11.90;99.90;12.70;97538.00;;;;5017225;28;20208;-83
2022/09/05 03:48:10;;;;;;;11.57;8.53;;;11.80;99.90;12.50;97537.00;;;;5011812;28;20795;-83
2022/09/05 03:51:18;;;;;;;4.20;3.80;;;11.80;99.90;12.30;97534.00;;;;4992027;28;20198;-84
2022/09/05 03:54:45;;;;;;;4.77;4.37;;;11.70;99.90;12.50;97531.00;;;;5010735;28;20206;-84
2022/09/05 03:58:13;;;;;;;5.13;4.73;;;11.70;99.90;13.00;97533.00;;;;5004029;28;20847;-82
2022/09/05 04:01:09;;;;;;;5.03;4.63;;;11.80;99.90;13.00;97529.00;;;;5010383;28;20197;-84
2022/09/05 04:04:06;;;;;;;5.23;4.73;;;10.90;99.90;12.90;97530.00;;;;5011862;28;20197;-83
2022/09/05 04:06:59;;;;;;;4.47;4.07;;;11.90;99.90;12.90;97521.00;;;;5013747;28;20209;-84
2022/09/05 04:09:55;;;;;;;4.63;4.23;;;11.80;99.90;13.10;97528.00;;;;5013660;28;20671;-83
2022/09/05 04:12:52;;;;;;;4.33;3.93;;;11.90;99.90;12.70;97531.00;;;;5028110;28;20237;-84
2022/09/05 04:15:44;;;;;;;4.77;4.27;;;11.90;99.90;12.50;97521.00;;;;5031799;28;20208;-82
2022/09/05 04:18:39;;;;;;;5.57;3.90;;;11.80;99.90;12.20;97532.00;;;;5030945;28;20205;-84
2022/09/05 04:21:34;;;;;;;4.67;3.70;;;11.70;99.90;12.50;97531.00;;;;5012714;28;20210;-84
2022/09/05 04:24:32;;;;;;;4.13;3.40;;;11.70;99.90;12.60;97531.00;;;;5024260;28;20201;-84
2022/09/05 04:27:40;;;;;;;5.60;4.20;;;11.70;99.90;12.60;97534.00;;;;5032642;28;20208;-84
2022/09/05 04:30:40;;;;;;;7.50;4.23;;;11.70;99.90;12.60;97541.00;;;;5011501;28;20216;-82
2022/09/05 04:33:37;;;;;;;5.57;3.93;;;11.70;99.90;12.60;97540.00;;;;5016376;28;20794;-83
2022/09/05 04:36:31;;;;;;;4.77;4.27;;;11.70;99.90;12.70;97546.00;;;;5032225;28;20216;-84
2022/09/05 04:39:27;;;;;;;4.73;3.87;;;11.70;99.90;13.00;97567.00;;;;5032279;28;20200;-84
2022/09/05 04:42:23;;;;;;;5.53;4.23;;;11.70;99.90;13.20;97563.00;;;;5026919;28;20229;-84
2022/09/05 04:45:15;;;;;;;4.53;4.13;;;11.90;99.90;13.20;97566.00;;;;5012716;28;20206;-84
2022/09/05 04:48:08;;;;;;;6.73;4.10;;;12.00;99.90;13.00;97574.00;;;;5017677;28;20206;-85
2022/09/05 04:51:08;;;;;;;6.87;3.87;;;12.00;99.90;12.80;97569.00;;;;5014956;28;20190;-84
2022/09/05 04:54:16;;;;;;;4.90;4.43;;;12.00;99.90;12.40;97559.00;;;;5025732;28;20225;-84
2022/09/05 04:57:25;;;;;;;5.40;4.90;;;11.80;99.90;12.70;97559.00;;;;5031507;28;20197;-85
2022/09/05 05:00:16;;;;;;;4.07;3.70;;;11.80;99.90;13.20;97566.00;;;;5012102;28;20212;-83
2022/09/05 05:03:13;;;;;;;4.67;4.23;;;11.90;99.90;13.40;97563.00;;;;5021970;28;20221;-84
2022/09/05 05:06:08;;;;;;;4.27;3.83;;;12.10;99.90;13.30;97576.00;;;;5019699;28;20212;-85
2022/09/05 05:09:26;;;;;;;4.37;4.00;;;12.20;99.90;13.20;97573.00;;;;5027271;28;20780;-85
2022/09/05 05:12:22;;;;;;;4.07;3.77;;;12.20;99.90;13.10;97569.00;;;;5019706;28;20230;-85
2022/09/05 05:15:16;;;;;;;3.70;3.40;;;12.30;99.90;13.00;97571.00;;;;5030142;28;20190;-85
2022/09/05 05:18:18;;;;;;;6.13;3.77;;;12.20;99.90;13.30;97574.00;;;;5021220;28;20208;-84
2022/09/05 05:21:11;;;;;;;4.20;3.80;;;12.20;99.90;12.90;97570.00;;;;5025595;28;20197;-84
2022/09/05 05:24:08;;;;;;;3.63;3.33;;;12.20;99.90;12.90;97558.00;;;;5021097;28;20208;-86
2022/09/05 05:27:10;;;;;;;4.10;3.70;;;12.20;99.90;12.90;97573.00;;;;5031252;28;20205;-85
2022/09/05 05:30:04;;;;;;;3.70;3.40;;;12.20;99.90;13.10;97566.00;;;;5028988;28;20201;-83
2022/09/05 05:32:55;;;;;;;4.07;3.77;;;12.20;99.90;13.50;97571.00;;;;5029507;28;20225;-85
2022/09/05 05:35:48;;;;;;;5.03;3.90;;;12.40;99.90;13.70;97578.00;;;;5026165;28;20197;-85
2022/09/05 05:38:46;;;;;;;4.80;4.27;;;12.50;99.90;13.60;97578.00;;;;5020017;28;20209;-85
2022/09/05 05:41:42;;;;;;;4.43;3.90;;;12.60;99.90;13.70;97583.00;;;;5020733;28;20221;-85
2022/09/05 05:44:35;;;;;;;5.57;3.60;;;12.70;99.90;13.90;97577.00;;;;5022434;28;20601;-84
2022/09/05 05:47:29;;;;;;;4.40;3.40;;;12.90;99.90;13.90;97577.00;;;;5025669;28;20245;-85
2022/09/05 05:50:37;;;;;;;3.70;3.40;;;12.90;99.90;13.90;97573.00;;;;5023679;28;20202;-84
2022/09/05 05:53:31;;;;;;;3.70;3.40;;;12.90;99.90;13.90;97579.00;;;;5027623;28;20217;-86
2022/09/05 05:57:01;;;;;;;4.40;3.70;;;13.00;99.90;13.80;97576.00;;;;5036345;28;20190;-85
2022/09/05 06:00:14;;;;;;;5.60;4.10;;;13.00;99.90;14.20;97582.00;;;;5025703;28;20655;-85
2022/09/05 06:03:46;;;;;;;4.60;4.10;;;13.10;99.90;14.50;97586.00;;;;5014497;28;20255;-84
2022/09/05 06:06:49;;;;;;;5.50;4.20;;;13.30;99.90;14.50;97575.00;;;;5026056;28;20193;-85
2022/09/05 06:10:38;;;;;;;4.47;4.07;;;13.40;99.90;14.60;97566.00;;;;5022200;28;20198;-86
2022/09/05 06:14:07;;;;;;;5.23;4.73;;;13.50;99.90;14.90;97577.00;;;;5019117;28;20233;-86
2022/09/05 06:17:49;;;;;;;6.00;4.73;;;13.80;99.90;15.30;97569.00;;;;5019167;28;20202;-85
2022/09/05 06:21:31;;;;;;;8.07;7.00;;;14.00;99.90;15.50;97569.00;;;;5032375;28;20201;-85
2022/09/05 06:25:07;;;;;;;6.90;5.23;;;14.20;99.90;15.80;97551.00;;;;4999048;28;20225;-84
2022/09/05 06:28:15;;;;;;;9.27;5.33;;;14.40;99.90;16.10;97557.00;;;;5013776;28;20205;-86
2022/09/05 06:31:35;;;;;;;5.70;5.10;;;14.60;99.90;16.20;97567.00;;;;5021349;28;20201;-85
2022/09/05 06:35:13;;;;;;;6.73;5.47;;;14.80;99.90;16.30;97575.00;;;;5016021;28;20900;-85
2022/09/05 06:38:45;;;;;;;6.03;5.43;;;15.00;99.90;16.50;97571.00;;;;5022401;28;20885;-85
2022/09/05 06:41:49;;;;;;;7.17;6.47;;;15.20;99.90;16.70;97567.00;;;;5025012;28;20224;-84
2022/09/05 06:45:04;;;;;;;9.67;6.40;;;15.40;99.90;16.80;97566.00;;;;5016203;28;20201;-83
2022/09/05 06:48:03;;;;;;;7.63;6.00;;;15.50;99.90;17.10;97575.00;;;;5021376;28;20575;-87
2022/09/05 06:51:26;;;;;;;9.23;5.97;;;15.60;99.90;17.20;97575.00;;;;5033653;28;20959;-86
2022/09/05 06:55:02;;;;;;;7.33;5.70;;;15.80;99.90;17.40;97566.00;;;;5018034;28;20857;-86
2022/09/05 06:59:14;;;;;;;6.30;5.70;;;16.00;99.90;18.30;97584.00;;;;5021825;28;20276;-85
2022/09/05 07:02:13;;;;;;;6.93;5.67;;;16.30;99.90;18.40;97586.00;;;;4952267;28;20224;-84
2022/09/05 07:05:26;;;;;;;7.20;5.80;;;16.60;99.90;18.70;97580.00;;;;4972824;28;20207;-84
2022/09/05 07:08:39;;;;;;;8.93;5.63;;;16.80;99.90;18.50;97578.00;;;;5029929;28;20193;-86
2022/09/05 07:11:36;;;;;;;7.10;5.33;;;17.00;99.90;19.00;97580.00;;;;5029884;28;20214;-84
2022/09/05 07:14:28;;;;;;;7.17;6.20;;;17.20;99.90;19.20;97566.00;;;;5023681;28;20831;-84
2022/09/05 07:17:24;;;;;;;7.33;5.80;;;17.40;99.90;19.60;97574.00;;;;5026965;28;20210;-84
2022/09/05 07:20:22;;;;;;;8.40;6.57;;;17.70;99.90;19.80;97574.00;;;;5026260;28;20202;-83
2022/09/05 07:23:23;;;;;;;5.67;5.17;;;17.90;99.90;20.10;97566.00;;;;5022785;28;20230;-84
2022/09/05 07:26:13;;;;;;;5.60;5.03;;;18.10;99.90;20.30;97580.00;;;;5025836;28;20208;-84
2022/09/05 07:29:08;;;;;;;5.40;4.63;;;18.30;99.90;20.50;97584.00;;;;5027871;28;20209;-83
2022/09/05 07:31:59;;;;;;;7.63;5.93;;;18.50;99.90;20.70;97578.00;;;;5030656;28;20225;-84
2022/09/05 07:34:49;;;;;;;10.20;5.00;;;18.70;99.90;20.70;97592.00;;;;5034087;28;20233;-84
2022/09/05 07:37:42;;;;;;;6.23;5.00;;;18.80;99.90;20.80;97582.00;;;;5028450;28;20567;-82
2022/09/05 07:40:34;;;;;;;10.77;5.87;;;19.00;99.90;21.00;97590.00;;;;5020975;28;20210;-82
2022/09/05 07:43:29;;;;;;;6.80;5.30;;;19.20;99.90;21.20;97590.00;;;;5032173;28;20787;-86
2022/09/05 07:46:22;;;;;;;4.97;4.47;;;19.30;99.90;21.40;97593.00;;;;5026455;28;20214;-84
2022/09/05 07:49:16;;;;;;;5.63;4.73;;;19.50;99.90;21.40;97594.00;;;;5025839;28;20666;-84
2022/09/05 07:52:13;;;;;;;7.43;4.83;;;19.60;99.90;21.70;97582.00;;;;5022068;28;20241;-84
2022/09/05 07:55:18;;;;;;;7.00;4.77;;;19.70;99.90;21.90;97589.00;;;;5026057;28;20232;-83
2022/09/05 07:58:13;;;;;;;5.73;5.17;;;19.90;99.90;22.00;97590.00;;;;5021135;28;20197;-85
2022/09/05 08:01:03;;;;;;;7.77;5.53;;;20.10;99.90;22.20;97593.00;;;;5014949;28;20206;-84
2022/09/05 08:03:56;;;;;;;6.70;4.27;;;20.20;99.90;22.20;97598.00;;;;5016459;28;20205;-85
2022/09/05 08:06:45;;;;;;;4.63;4.23;;;20.30;99.90;22.30;97589.00;;;;5013874;28;20202;-83
2022/09/05 08:09:37;;;;;;;5.57;4.17;;;20.50;99.90;22.60;97589.00;;;;5014998;28;20281;-84
2022/09/05 08:12:33;;;;;;;5.67;4.63;;;20.60;99.90;22.40;97589.00;;;;5024816;28;20236;-83
2022/09/05 08:15:25;;;;;;;6.23;4.27;;;20.80;99.90;22.70;97595.00;;;;5016980;28;20599;-82
2022/09/05 08:18:22;;;;;;;4.60;4.20;;;20.90;99.90;22.90;97591.00;;;;5020648;28;20202;-82
2022/09/05 08:21:22;;;;;;;5.00;4.50;;;21.00;99.90;22.80;97592.00;;;;5026480;28;20202;-83
2022/09/05 08:24:19;;;;;;;4.57;4.17;;;21.10;99.90;23.00;97589.00;;;;5018805;28;20197;-81
2022/09/05 08:27:17;;;;;;;6.27;4.27;;;21.20;99.90;23.40;97582.00;;;;5025167;28;20208;-83
2022/09/05 08:30:09;;;;;;;4.77;4.37;;;21.40;99.90;23.50;97582.00;;;;5028286;28;20216;-83
2022/09/05 08:33:02;;;;;;;4.83;4.17;;;21.50;99.90;23.30;97591.00;;;;5021697;28;20236;-83
2022/09/05 08:35:58;;;;;;;3.57;3.27;;;21.60;99.90;23.80;97578.00;;;;5018681;28;20241;-83
2022/09/05 08:38:49;;;;;;;5.43;4.20;;;21.80;99.90;23.60;97572.00;;;;5017520;28;20208;-83
2022/09/05 08:41:56;;;;;;;5.20;4.20;;;21.90;99.90;23.80;97572.00;;;;5019364;28;20248;-83
2022/09/05 08:45:10;;;;;;;4.90;4.10;;;22.10;99.90;24.20;97571.00;;;;5015940;28;20224;-83
2022/09/05 08:48:14;;;;;;;5.63;4.40;;;22.20;99.90;23.60;97572.00;;;;5033922;28;20197;-83
2022/09/05 08:51:25;;;;;;;5.37;4.70;;;22.30;99.90;24.30;97578.00;;;;5037224;28;20197;-83
2022/09/05 08:54:21;;;;;;;6.03;4.03;;;22.30;99.90;24.20;97571.00;;;;5024417;28;20231;-84
2022/09/05 08:57:34;;;;;;;6.47;4.03;;;22.40;99.90;23.80;97572.00;;;;5024605;28;20212;-83
2022/09/05 09:00:24;;;;;;;4.80;3.43;;;22.40;99.90;24.10;97570.00;;;;5025788;28;20205;-85
2022/09/05 09:03:21;;;;;;;5.33;4.00;;;22.40;99.90;24.00;97559.00;;;;5028119;28;20774;-83
2022/09/05 09:06:34;;;;;;;4.73;3.53;;;22.40;99.90;24.00;97568.00;;;;5025182;28;20679;-83
2022/09/05 09:09:50;;;;;;;4.07;3.77;;;22.50;99.90;24.80;97562.00;;;;5024014;28;20205;-86
2022/09/05 09:13:13;;;;;;;4.60;3.43;;;22.60;99.90;25.30;97568.00;;;;5023102;28;20232;-86
2022/09/05 09:16:08;;;;;;;3.23;3.03;;;22.90;99.90;25.50;97558.00;;;;5020955;28;20225;-85
2022/09/05 09:19:11;;;;;;;3.87;3.57;;;23.30;99.90;25.90;97552.00;;;;5025674;28;20206;-83
2022/09/05 09:22:15;;;;;;;4.43;4.00;;;23.50;99.90;26.10;97551.00;;;;5025659;28;20236;-85
2022/09/05 09:25:10;;;;;;;4.30;3.40;;;23.80;99.90;26.20;97563.00;;;;5022642;28;20220;-83
2022/09/05 09:28:41;;;;;;;3.13;2.90;;;24.00;99.90;25.50;97547.00;;;;5030474;28;20202;-83
2022/09/05 09:31:43;;;;;;;3.37;3.10;;;24.00;99.90;26.30;97557.00;;;;5023583;28;20236;-83
2022/09/05 09:34:44;;;;;;;3.07;2.87;;;24.10;99.90;26.40;97544.00;;;;5024366;28;20246;-84
2022/09/05 09:38:05;;;;;;;4.03;3.73;;;24.30;99.90;26.70;97550.00;;;;5021860;28;20209;-84
2022/09/05 09:41:46;;;;;;;4.37;3.77;;;24.50;99.90;26.20;97549.00;;;;5029812;28;20207;-86
2022/09/05 09:45:20;;;;;;;3.80;3.50;;;24.70;99.90;26.80;97545.00;;;;5026621;28;20199;-84
2022/09/05 09:48:58;;;;;;;3.53;3.27;;;24.80;99.90;25.90;97549.00;;;;5032396;28;20206;-85
2022/09/05 09:52:35;;;;;;;3.43;3.20;;;24.70;99.90;26.40;97538.00;;;;5031710;28;20592;-82
2022/09/05 09:56:21;;;;;;;4.57;3.30;;;24.80;99.90;27.00;97541.00;;;;4957570;28;20229;-84
2022/09/05 10:00:01;;;;;;;3.43;3.13;;;24.80;99.90;27.10;97545.00;;;;5030382;28;20213;-83
2022/09/05 10:03:33;;;;;;;3.47;3.17;;;24.90;99.90;26.40;97539.00;;;;4971816;28;20223;-85
2022/09/05 10:06:57;;;;;;;5.17;3.60;;;24.90;99.90;26.40;97528.00;;;;5025610;28;20199;-84
2022/09/05 10:10:09;;;;;;;3.40;3.10;;;24.90;99.90;27.40;97535.00;;;;5019937;28;20198;-86
2022/09/05 10:13:24;;;;;;;3.67;3.37;;;25.10;99.90;27.70;97527.00;;;;5024205;28;20596;-84
2022/09/05 10:17:01;;;;;;;6.30;2.97;;;25.40;99.90;27.60;97543.00;;;;5033368;28;20601;-84
2022/09/05 10:20:13;;;;;;;4.00;3.20;;;25.50;99.90;26.20;97539.00;;;;5030976;28;20213;-83
2022/09/05 10:23:40;;;;;;;3.43;3.13;;;25.30;99.90;26.70;97537.00;;;;5026552;28;20237;-84
2022/09/05 10:27:08;;;;;;;3.30;3.00;;;25.10;99.90;26.70;97527.00;;;;5020933;28;20585;-86
2022/09/05 10:30:10;;;;;;;4.93;3.87;;;25.00;99.90;26.80;97531.00;;;;5032470;28;20208;-86
2022/09/05 10:33:20;;;;;;;3.27;3.07;;;24.90;99.90;26.20;97531.00;;;;5026894;28;20222;-86
2022/09/05 10:36:24;;;;;;;3.87;3.33;;;24.90;99.90;26.20;97529.00;;;;5023801;28;20239;-86
2022/09/05 10:39:19;;;;;;;5.17;4.10;;;24.80;99.90;25.90;97526.00;;;;5045483;28;20208;-85
2022/09/05 10:42:14;;;;;;;4.07;3.77;;;24.60;99.90;26.30;97524.00;;;;5038815;28;20223;-85
2022/09/05 10:45:13;;;;;;;3.97;3.67;;;24.60;99.90;25.70;97537.00;;;;5025021;28;20225;-84
2022/09/05 10:48:12;;;;;;;4.77;4.37;;;24.50;99.90;25.90;97530.00;;;;5027295;28;20195;-87
2022/09/05 10:51:06;;;;;;;4.27;3.87;;;24.40;99.90;26.00;97538.00;;;;5033052;28;20202;-84
2022/09/05 10:54:15;;;;;;;3.60;3.30;;;24.30;99.90;25.90;97533.00;;;;5033340;28;20199;-85
2022/09/05 10:57:21;;;;;;;3.97;3.67;;;24.30;99.90;25.70;97541.00;;;;5027008;28;20243;-84
2022/09/05 11:00:38;;;;;;;3.73;3.43;;;24.20;99.90;24.90;97536.00;;;;5024952;28;20207;-85
2022/09/05 11:03:30;;;;;;;4.37;3.97;;;24.00;99.90;25.10;97537.00;;;;5020760;28;20198;-86
2022/09/05 11:06:24;;;;;;;4.43;4.03;;;23.70;99.90;25.50;97529.00;;;;5022091;28;20210;-86
2022/09/05 11:09:39;;;;;;;3.97;3.60;;;23.70;99.90;25.60;97522.00;;;;5026389;28;20201;-84
2022/09/05 11:12:44;;;;;;;5.60;4.50;;;23.60;99.90;25.70;97523.00;;;;5030435;28;20249;-86
2022/09/05 11:15:54;;;;;;;4.67;4.23;;;23.80;99.90;26.20;97528.00;;;;5027999;28;20229;-86
2022/09/05 11:18:56;;;;;;;4.90;4.40;;;24.00;99.90;26.00;97514.00;;;;5022243;28;20205;-86
2022/09/05 11:21:58;;;;;;;4.00;3.70;;;24.20;99.90;24.90;97502.00;;;;5020410;28;20302;-86
2022/09/05 11:24:54;;;;;;;4.70;3.77;;;24.20;99.90;25.50;97515.00;;;;5031733;28;20211;-86
2022/09/05 11:27:47;;;;;;;4.83;3.87;;;24.10;99.90;25.90;97503.00;;;;5027318;28;20787;-86
2022/09/05 11:30:42;;;;;;;4.80;4.00;;;24.20;99.90;25.60;97513.00;;;;5026962;28;20197;-86
2022/09/05 11:33:59;;;;;;;4.33;3.73;;;24.20;99.90;25.30;97504.00;;;;5020692;28;20201;-86
2022/09/05 11:36:53;;;;;;;4.30;3.90;;;24.20;99.90;25.60;97515.00;;;;5027635;28;20238;-86
2022/09/05 11:40:18;;;;;;;4.57;3.87;;;24.20;99.90;25.60;97522.00;;;;5027031;28;20201;-86
2022/09/05 11:43:53;;;;;;;5.37;4.37;;;24.20;99.90;25.10;97521.00;;;;5026302;28;20220;-87
2022/09/05 11:46:53;;;;;;;4.83;4.23;;;24.10;99.90;25.00;97519.00;;;;5021517;28;20223;-85
2022/09/05 11:50:34;;;;;;;3.80;3.50;;;23.90;99.90;25.70;97512.00;;;;5024404;28;20213;-86
2022/09/05 11:54:08;;;;;;;4.53;3.37;;;23.90;99.90;25.20;97487.00;;;;5023699;28;20225;-86
2022/09/05 11:57:23;;;;;;;6.73;4.23;;;24.00;99.90;26.20;97495.00;;;;5028654;28;20229;-86
2022/09/05 12:00:16;;;;;;;4.80;4.30;;;24.20;99.90;26.10;97494.00;;;;5023386;28;20203;-85
2022/09/05 12:04:18;;;;;;;4.10;3.80;;;24.40;99.90;26.20;97505.00;;;;5017223;28;20226;-85
2022/09/05 12:07:36;;;;;;;4.43;4.03;;;24.50;99.90;26.20;97486.00;;;;5009925;28;20202;-86
2022/09/05 12:10:34;;;;;;;5.63;4.13;;;24.80;99.90;27.30;97450.00;;;;5026522;28;20217;-85
2022/09/05 12:13:41;;;;;;;4.10;3.80;;;24.90;99.90;28.30;97464.00;;;;5023402;28;20234;-86
2022/09/05 12:16:55;;;;;;;3.77;3.47;;;25.50;99.90;28.90;97460.00;;;;5018233;28;20224;-86
2022/09/05 12:19:58;;;;;;;4.70;4.30;;;26.00;99.90;27.60;97450.00;;;;5032924;28;20225;-85
2022/09/05 12:22:56;;;;;;;3.90;3.60;;;26.30;99.90;28.30;97472.00;;;;5022686;28;20239;-86
2022/09/05 12:25:56;;;;;;;3.40;3.10;;;26.50;99.90;26.60;97463.00;;;;5016276;28;20216;-85
2022/09/05 12:28:48;;;;;;;4.00;3.70;;;26.30;99.90;28.80;97465.00;;;;5024479;28;20206;-86
2022/09/05 12:31:44;;;;;;;4.73;3.90;;;26.40;99.90;28.60;97474.00;;;;5020875;28;20230;-86
2022/09/05 12:34:50;;;;;;;4.27;3.97;;;26.60;99.90;26.40;97459.00;;;;5018485;28;20191;-88
2022/09/05 12:37:50;;;;;;;4.50;4.03;;;26.10;99.90;27.90;97449.00;;;;5020138;28;20227;-86
2022/09/05 12:40:51;;;;;;;4.37;3.97;;;26.20;99.90;27.20;97472.00;;;;5027806;28;20198;-85
2022/09/05 12:44:00;;;;;;;4.43;3.93;;;26.00;99.90;27.30;97476.00;;;;5021564;28;20204;-86
2022/09/05 12:46:58;;;;;;;4.47;4.13;;;25.80;99.90;27.10;97484.00;;;;5022040;28;20208;-86
2022/09/05 12:50:01;;;;;;;5.77;4.00;;;25.70;99.90;27.00;97479.00;;;;5015200;28;20732;-84
2022/09/05 12:52:58;;;;;;;5.63;4.40;;;25.60;99.90;27.00;97486.00;;;;5014632;28;20249;-84
2022/09/05 12:55:53;;;;;;;6.97;4.57;;;25.50;99.90;27.00;97480.00;;;;5020610;28;20209;-85
2022/09/05 12:58:48;;;;;;;5.67;3.90;;;25.40;99.90;25.90;97472.00;;;;5020521;28;20263;-86
2022/09/05 13:01:40;;;;;;;4.33;3.93;;;25.20;99.90;26.30;97472.00;;;;5020709;28;20234;-84
2022/09/05 13:04:35;;;;;;;5.33;4.27;;;25.00;99.90;26.60;97469.00;;;;5020279;28;20200;-86
2022/09/05 13:07:39;;;;;;;8.63;4.20;;;24.90;99.90;27.00;97469.00;;;;5021869;28;20239;-84
2022/09/05 13:10:36;;;;;;;4.13;3.77;;;25.00;99.90;27.20;97466.00;;;;5021211;28;20258;-85
2022/09/05 13:13:32;;;;;;;4.40;4.00;;;25.00;99.90;27.30;97470.00;;;;5018338;28;20221;-85
2022/09/05 13:16:25;;;;;;;4.13;3.70;;;25.20;99.90;27.10;97473.00;;;;5019870;28;20236;-85
2022/09/05 13:19:33;;;;;;;8.20;3.80;;;25.20;99.90;27.10;97460.00;;;;5020175;28;20221;-84
2022/09/05 13:22:25;;;;;;;3.93;3.63;;;25.20;99.90;27.40;97460.00;;;;5018968;28;20348;-85
2022/09/05 13:25:25;;;;;;;4.13;3.83;;;25.30;99.90;27.60;97454.00;;;;5022497;28;20207;-86
2022/09/05 13:28:16;;;;;;;4.20;3.90;;;25.40;99.90;27.50;97450.00;;;;5018174;28;20206;-85
2022/09/05 13:31:07;;;;;;;4.43;4.03;;;25.60;99.90;27.80;97450.00;;;;5021537;28;20206;-85
2022/09/05 13:33:56;;;;;;;3.93;3.63;;;25.70;99.90;27.50;97448.00;;;;5022012;28;20205;-85
2022/09/05 13:36:49;;;;;;;4.33;4.03;;;25.80;99.90;28.00;97443.00;;;;5026456;28;20623;-85
2022/09/05 13:39:55;;;;;;;4.20;3.80;;;25.90;99.90;28.90;97404.00;;;;5023369;28;20229;-86
2022/09/05 13:42:57;;;;;;;6.13;3.87;;;26.30;99.90;28.70;97447.00;;;;5022685;28;20697;-86
2022/09/05 13:46:09;;;;;;;4.07;3.77;;;26.60;99.90;28.30;97463.00;;;;5022894;28;20206;-86
2022/09/05 13:49:10;;;;;;;4.23;3.93;;;26.60;99.90;27.50;97450.00;;;;5021193;28;20211;-87